sensor_id;sensor_type;location;lat;lon;timestamp;temperature;humidity
45837;DHT22;31548;51.420;-0.040;2023-04-15T00:00:07;8.30;99.90
45837;DHT22;31548;51.420;-0.040;2023-04-15T00:02:39;8.10;99.90
45837;DHT22;31548;51.420;-0.040;2023-04-15T00:05:07;8.10;99.90
45837;DHT22;31548;51.420;-0.040;2023-04-15T00:07:35;8.00;99.90
45837;DHT22;31548;51.420;-0.040;2023-04-15T00:10:03;8.00;99.90
45837;DHT22;31548;51.420;-0.040;2023-04-15T00:12:31;7.90;99.90
45837;DHT22;31548;51.420;-0.040;2023-04-15T00:15:00;7.90;99.90
45837;DHT22;31548;51.420;-0.040;2023-04-15T00:17:27;7.80;99.90
45837;DHT22;31548;51.420;-0.040;2023-04-15T00:19:55;7.80;99.90
45837;DHT22;31548;51.420;-0.040;2023-04-15T00:22:23;7.70;99.90
45837;DHT22;31548;51.420;-0.040;2023-04-15T00:24:52;7.70;99.90
45837;DHT22;31548;51.420;-0.040;2023-04-15T00:27:19;7.70;99.90
45837;DHT22;31548;51.420;-0.040;2023-04-15T00:29:47;7.70;99.90
45837;DHT22;31548;51.420;-0.040;2023-04-15T00:32:15;7.70;99.90
45837;DHT22;31548;51.420;-0.040;2023-04-15T00:34:42;7.70;99.90
45837;DHT22;31548;51.420;-0.040;2023-04-15T00:37:11;7.80;99.90
45837;DHT22;31548;51.420;-0.040;2023-04-15T00:39:39;7.80;99.90
45837;DHT22;31548;51.420;-0.040;2023-04-15T00:42:06;7.80;99.90
45837;DHT22;31548;51.420;-0.040;2023-04-15T00:44:35;7.80;99.90
45837;DHT22;31548;51.420;-0.040;2023-04-15T00:47:03;7.80;99.90
45837;DHT22;31548;51.420;-0.040;2023-04-15T00:49:31;7.80;99.90
45837;DHT22;31548;51.420;-0.040;2023-04-15T00:52:00;7.90;99.90
45837;DHT22;31548;51.420;-0.040;2023-04-15T00:54:29;7.90;99.90
45837;DHT22;31548;51.420;-0.040;2023-04-15T00:56:57;7.90;99.90
45837;DHT22;31548;51.420;-0.040;2023-04-15T00:59:29;7.90;99.90
45837;DHT22;31548;51.420;-0.040;2023-04-15T01:01:57;7.90;99.90
45837;DHT22;31548;51.420;-0.040;2023-04-15T01:04:25;8.00;99.90
45837;DHT22;31548;51.420;-0.040;2023-04-15T01:06:53;8.00;99.90
45837;DHT22;31548;51.420;-0.040;2023-04-15T01:09:20;8.00;99.90
45837;DHT22;31548;51.420;-0.040;2023-04-15T01:11:50;8.00;99.90
45837;DHT22;31548;51.420;-0.040;2023-04-15T01:14:18;8.00;99.90
45837;DHT22;31548;51.420;-0.040;2023-04-15T01:16:46;8.00;99.90
45837;DHT22;31548;51.420;-0.040;2023-04-15T01:19:16;8.00;99.90
45837;DHT22;31548;51.420;-0.040;2023-04-15T01:21:44;8.00;99.90
45837;DHT22;31548;51.420;-0.040;2023-04-15T01:24:12;7.90;99.90
45837;DHT22;31548;51.420;-0.040;2023-04-15T01:26:44;8.00;99.90
45837;DHT22;31548;51.420;-0.040;2023-04-15T01:29:13;8.00;99.90
45837;DHT22;31548;51.420;-0.040;2023-04-15T01:31:52;8.00;99.90
45837;DHT22;31548;51.420;-0.040;2023-04-15T01:34:38;7.90;99.90
45837;DHT22;31548;51.420;-0.040;2023-04-15T01:37:24;8.00;99.90
45837;DHT22;31548;51.420;-0.040;2023-04-15T01:39:52;7.90;99.90
45837;DHT22;31548;51.420;-0.040;2023-04-15T01:42:22;8.00;99.90
45837;DHT22;31548;51.420;-0.040;2023-04-15T01:44:51;8.00;99.90
45837;DHT22;31548;51.420;-0.040;2023-04-15T01:47:21;7.90;99.90
45837;DHT22;31548;51.420;-0.040;2023-04-15T01:49:50;7.90;99.90
45837;DHT22;31548;51.420;-0.040;2023-04-15T01:52:19;7.90;99.90
45837;DHT22;31548;51.420;-0.040;2023-04-15T01:54:48;7.90;99.90
45837;DHT22;31548;51.420;-0.040;2023-04-15T01:57:19;7.90;99.90
45837;DHT22;31548;51.420;-0.040;2023-04-15T01:59:48;7.80;99.90
45837;DHT22;31548;51.420;-0.040;2023-04-15T02:02:17;7.80;99.90
45837;DHT22;31548;51.420;-0.040;2023-04-15T02:04:46;7.80;99.90
45837;DHT22;31548;51.420;-0.040;2023-04-15T02:07:16;7.80;99.90
45837;DHT22;31548;51.420;-0.040;2023-04-15T02:09:48;7.70;99.90
45837;DHT22;31548;51.420;-0.040;2023-04-15T02:12:17;7.70;99.90
45837;DHT22;31548;51.420;-0.040;2023-04-15T02:14:46;7.70;99.90
45837;DHT22;31548;51.420;-0.040;2023-04-15T02:17:16;7.70;99.90
45837;DHT22;31548;51.420;-0.040;2023-04-15T02:19:45;7.70;99.90
45837;DHT22;31548;51.420;-0.040;2023-04-15T02:22:15;7.70;99.90
45837;DHT22;31548;51.420;-0.040;2023-04-15T02:24:47;7.70;99.90
45837;DHT22;31548;51.420;-0.040;2023-04-15T02:27:16;7.70;99.90
45837;DHT22;31548;51.420;-0.040;2023-04-15T02:29:45;7.70;99.90
45837;DHT22;31548;51.420;-0.040;2023-04-15T02:32:14;7.70;99.90
45837;DHT22;31548;51.420;-0.040;2023-04-15T02:34:44;7.70;99.90
45837;DHT22;31548;51.420;-0.040;2023-04-15T02:37:13;7.70;99.90
45837;DHT22;31548;51.420;-0.040;2023-04-15T02:39:42;7.60;99.90
45837;DHT22;31548;51.420;-0.040;2023-04-15T02:42:11;7.60;99.90
45837;DHT22;31548;51.420;-0.040;2023-04-15T02:44:40;7.60;99.90
45837;DHT22;31548;51.420;-0.040;2023-04-15T02:47:09;7.60;99.90
45837;DHT22;31548;51.420;-0.040;2023-04-15T02:49:39;7.50;99.90
45837;DHT22;31548;51.420;-0.040;2023-04-15T02:52:08;7.50;99.90
45837;DHT22;31548;51.420;-0.040;2023-04-15T02:54:37;7.50;99.90
45837;DHT22;31548;51.420;-0.040;2023-04-15T02:57:06;7.40;99.90
45837;DHT22;31548;51.420;-0.040;2023-04-15T02:59:35;7.50;99.90
45837;DHT22;31548;51.420;-0.040;2023-04-15T03:02:04;7.50;99.90
45837;DHT22;31548;51.420;-0.040;2023-04-15T03:04:35;7.50;99.90
45837;DHT22;31548;51.420;-0.040;2023-04-15T03:07:04;7.50;99.90
45837;DHT22;31548;51.420;-0.040;2023-04-15T03:09:34;7.50;99.90
45837;DHT22;31548;51.420;-0.040;2023-04-15T03:12:04;7.50;99.90
45837;DHT22;31548;51.420;-0.040;2023-04-15T03:14:35;7.50;99.90
45837;DHT22;31548;51.420;-0.040;2023-04-15T03:17:04;7.50;99.90
45837;DHT22;31548;51.420;-0.040;2023-04-15T03:19:33;7.50;99.90
45837;DHT22;31548;51.420;-0.040;2023-04-15T03:22:01;7.50;99.90
45837;DHT22;31548;51.420;-0.040;2023-04-15T03:24:30;7.50;99.90
45837;DHT22;31548;51.420;-0.040;2023-04-15T03:27:00;7.50;99.90
45837;DHT22;31548;51.420;-0.040;2023-04-15T03:29:30;7.50;99.90
45837;DHT22;31548;51.420;-0.040;2023-04-15T03:31:59;7.50;99.90
45837;DHT22;31548;51.420;-0.040;2023-04-15T03:34:32;7.50;99.90
45837;DHT22;31548;51.420;-0.040;2023-04-15T03:37:02;7.50;99.90
45837;DHT22;31548;51.420;-0.040;2023-04-15T03:39:31;7.50;99.90
45837;DHT22;31548;51.420;-0.040;2023-04-15T03:42:00;7.50;99.90
45837;DHT22;31548;51.420;-0.040;2023-04-15T03:44:29;7.60;99.90
45837;DHT22;31548;51.420;-0.040;2023-04-15T03:46:58;7.50;99.90
45837;DHT22;31548;51.420;-0.040;2023-04-15T03:49:27;7.60;99.90
45837;DHT22;31548;51.420;-0.040;2023-04-15T03:51:56;7.60;99.90
45837;DHT22;31548;51.420;-0.040;2023-04-15T03:54:25;7.60;99.90
45837;DHT22;31548;51.420;-0.040;2023-04-15T03:56:54;7.60;99.90
45837;DHT22;31548;51.420;-0.040;2023-04-15T03:59:23;7.50;99.90
45837;DHT22;31548;51.420;-0.040;2023-04-15T04:01:52;7.50;99.90
45837;DHT22;31548;51.420;-0.040;2023-04-15T04:04:21;7.50;99.90
45837;DHT22;31548;51.420;-0.040;2023-04-15T04:06:50;7.60;99.90
45837;DHT22;31548;51.420;-0.040;2023-04-15T04:09:22;7.60;99.90
45837;DHT22;31548;51.420;-0.040;2023-04-15T04:11:52;7.50;99.90
45837;DHT22;31548;51.420;-0.040;2023-04-15T04:14:21;7.60;99.90
45837;DHT22;31548;51.420;-0.040;2023-04-15T04:16:57;7.60;99.90
45837;DHT22;31548;51.420;-0.040;2023-04-15T04:19:26;7.60;99.90
45837;DHT22;31548;51.420;-0.040;2023-04-15T04:21:55;7.60;99.90
45837;DHT22;31548;51.420;-0.040;2023-04-15T04:24:24;7.60;99.90
45837;DHT22;31548;51.420;-0.040;2023-04-15T04:26:53;7.50;99.90
45837;DHT22;31548;51.420;-0.040;2023-04-15T04:29:22;7.50;99.90
45837;DHT22;31548;51.420;-0.040;2023-04-15T04:31:51;7.50;99.90
45837;DHT22;31548;51.420;-0.040;2023-04-15T04:34:20;7.60;99.90
45837;DHT22;31548;51.420;-0.040;2023-04-15T04:36:49;7.60;99.90
45837;DHT22;31548;51.420;-0.040;2023-04-15T04:39:18;7.50;99.90
45837;DHT22;31548;51.420;-0.040;2023-04-15T04:41:47;7.50;99.90
45837;DHT22;31548;51.420;-0.040;2023-04-15T04:44:16;7.50;99.90
45837;DHT22;31548;51.420;-0.040;2023-04-15T04:46:45;7.50;99.90
45837;DHT22;31548;51.420;-0.040;2023-04-15T04:49:14;7.50;99.90
45837;DHT22;31548;51.420;-0.040;2023-04-15T04:51:43;7.50;99.90
45837;DHT22;31548;51.420;-0.040;2023-04-15T04:54:12;7.50;99.90
45837;DHT22;31548;51.420;-0.040;2023-04-15T04:56:41;7.50;99.90
45837;DHT22;31548;51.420;-0.040;2023-04-15T04:59:10;7.50;99.90
45837;DHT22;31548;51.420;-0.040;2023-04-15T05:01:40;7.50;99.90
45837;DHT22;31548;51.420;-0.040;2023-04-15T05:04:09;7.50;99.90
45837;DHT22;31548;51.420;-0.040;2023-04-15T05:06:38;7.50;99.90
45837;DHT22;31548;51.420;-0.040;2023-04-15T05:09:07;7.60;99.90
45837;DHT22;31548;51.420;-0.040;2023-04-15T05:11:36;7.60;99.90
45837;DHT22;31548;51.420;-0.040;2023-04-15T05:14:05;7.60;99.90
45837;DHT22;31548;51.420;-0.040;2023-04-15T05:16:34;7.60;99.90
45837;DHT22;31548;51.420;-0.040;2023-04-15T05:19:03;7.60;99.90
45837;DHT22;31548;51.420;-0.040;2023-04-15T05:21:32;7.60;99.90
45837;DHT22;31548;51.420;-0.040;2023-04-15T05:24:01;7.60;99.90
45837;DHT22;31548;51.420;-0.040;2023-04-15T05:26:30;7.60;99.90
45837;DHT22;31548;51.420;-0.040;2023-04-15T05:28:59;7.60;99.90
45837;DHT22;31548;51.420;-0.040;2023-04-15T05:31:29;7.60;99.90
45837;DHT22;31548;51.420;-0.040;2023-04-15T05:33:58;7.60;99.90
45837;DHT22;31548;51.420;-0.040;2023-04-15T05:36:26;7.60;99.90
45837;DHT22;31548;51.420;-0.040;2023-04-15T05:38:56;7.60;99.90
45837;DHT22;31548;51.420;-0.040;2023-04-15T05:41:25;7.60;99.90
45837;DHT22;31548;51.420;-0.040;2023-04-15T05:43:54;7.60;99.90
45837;DHT22;31548;51.420;-0.040;2023-04-15T05:46:24;7.70;99.90
45837;DHT22;31548;51.420;-0.040;2023-04-15T05:48:53;7.70;99.90
45837;DHT22;31548;51.420;-0.040;2023-04-15T05:51:24;7.70;99.90
45837;DHT22;31548;51.420;-0.040;2023-04-15T05:53:54;7.70;99.90
45837;DHT22;31548;51.420;-0.040;2023-04-15T05:56:23;7.80;99.90
45837;DHT22;31548;51.420;-0.040;2023-04-15T05:58:54;7.70;99.90
45837;DHT22;31548;51.420;-0.040;2023-04-15T06:01:23;7.80;99.90
45837;DHT22;31548;51.420;-0.040;2023-04-15T06:03:52;7.80;99.90
45837;DHT22;31548;51.420;-0.040;2023-04-15T06:06:22;7.80;99.90
45837;DHT22;31548;51.420;-0.040;2023-04-15T06:08:51;7.90;99.90
45837;DHT22;31548;51.420;-0.040;2023-04-15T06:11:20;7.90;99.90
45837;DHT22;31548;51.420;-0.040;2023-04-15T06:13:49;7.90;99.90
45837;DHT22;31548;51.420;-0.040;2023-04-15T06:16:21;7.90;99.90
45837;DHT22;31548;51.420;-0.040;2023-04-15T06:18:50;7.90;99.90
45837;DHT22;31548;51.420;-0.040;2023-04-15T06:21:19;7.90;99.90
45837;DHT22;31548;51.420;-0.040;2023-04-15T06:23:48;7.90;99.90
45837;DHT22;31548;51.420;-0.040;2023-04-15T06:26:17;8.00;99.90
45837;DHT22;31548;51.420;-0.040;2023-04-15T06:28:48;8.00;99.90
45837;DHT22;31548;51.420;-0.040;2023-04-15T06:31:17;8.00;99.90
45837;DHT22;31548;51.420;-0.040;2023-04-15T06:33:46;8.00;99.90
45837;DHT22;31548;51.420;-0.040;2023-04-15T06:36:15;8.00;99.90
45837;DHT22;31548;51.420;-0.040;2023-04-15T06:38:44;8.00;99.90
45837;DHT22;31548;51.420;-0.040;2023-04-15T06:41:13;8.10;99.90
45837;DHT22;31548;51.420;-0.040;2023-04-15T06:43:42;8.10;99.90
45837;DHT22;31548;51.420;-0.040;2023-04-15T06:46:11;8.10;99.90
45837;DHT22;31548;51.420;-0.040;2023-04-15T06:48:40;8.10;99.90
45837;DHT22;31548;51.420;-0.040;2023-04-15T06:51:09;8.10;99.90
45837;DHT22;31548;51.420;-0.040;2023-04-15T06:53:40;8.10;99.90
45837;DHT22;31548;51.420;-0.040;2023-04-15T06:56:11;8.20;99.90
45837;DHT22;31548;51.420;-0.040;2023-04-15T06:58:40;8.30;99.90
45837;DHT22;31548;51.420;-0.040;2023-04-15T07:01:08;8.30;99.90
45837;DHT22;31548;51.420;-0.040;2023-04-15T07:03:37;8.30;99.90
45837;DHT22;31548;51.420;-0.040;2023-04-15T07:06:06;8.40;99.90
45837;DHT22;31548;51.420;-0.040;2023-04-15T07:08:37;8.40;99.90
45837;DHT22;31548;51.420;-0.040;2023-04-15T07:11:06;8.40;99.90
45837;DHT22;31548;51.420;-0.040;2023-04-15T07:13:35;8.40;99.90
45837;DHT22;31548;51.420;-0.040;2023-04-15T07:16:04;8.50;99.90
45837;DHT22;31548;51.420;-0.040;2023-04-15T07:18:33;8.50;99.90
45837;DHT22;31548;51.420;-0.040;2023-04-15T07:21:02;8.50;99.90
45837;DHT22;31548;51.420;-0.040;2023-04-15T07:23:31;8.60;99.90
45837;DHT22;31548;51.420;-0.040;2023-04-15T07:26:00;8.60;99.90
45837;DHT22;31548;51.420;-0.040;2023-04-15T07:28:30;8.60;99.90
45837;DHT22;31548;51.420;-0.040;2023-04-15T07:30:58;8.50;99.90
45837;DHT22;31548;51.420;-0.040;2023-04-15T07:33:28;8.50;99.90
45837;DHT22;31548;51.420;-0.040;2023-04-15T07:35:57;8.40;99.90
45837;DHT22;31548;51.420;-0.040;2023-04-15T07:38:25;8.40;99.90
45837;DHT22;31548;51.420;-0.040;2023-04-15T07:40:54;8.40;99.90
45837;DHT22;31548;51.420;-0.040;2023-04-15T07:43:24;8.40;99.90
45837;DHT22;31548;51.420;-0.040;2023-04-15T07:45:54;8.40;99.90
45837;DHT22;31548;51.420;-0.040;2023-04-15T07:48:23;8.40;99.90
45837;DHT22;31548;51.420;-0.040;2023-04-15T07:50:52;8.30;99.90
45837;DHT22;31548;51.420;-0.040;2023-04-15T07:53:20;8.40;99.90
45837;DHT22;31548;51.420;-0.040;2023-04-15T07:55:49;8.50;99.90
45837;DHT22;31548;51.420;-0.040;2023-04-15T07:58:18;8.50;99.90
45837;DHT22;31548;51.420;-0.040;2023-04-15T08:00:47;8.50;99.90
45837;DHT22;31548;51.420;-0.040;2023-04-15T08:03:16;8.50;99.90
45837;DHT22;31548;51.420;-0.040;2023-04-15T08:05:46;8.60;99.90
45837;DHT22;31548;51.420;-0.040;2023-04-15T08:08:14;8.60;99.90
45837;DHT22;31548;51.420;-0.040;2023-04-15T08:10:44;8.70;99.90
45837;DHT22;31548;51.420;-0.040;2023-04-15T08:13:13;8.70;99.90
45837;DHT22;31548;51.420;-0.040;2023-04-15T08:15:42;8.70;99.90
45837;DHT22;31548;51.420;-0.040;2023-04-15T08:18:10;8.80;99.90
45837;DHT22;31548;51.420;-0.040;2023-04-15T08:20:39;8.80;99.90
45837;DHT22;31548;51.420;-0.040;2023-04-15T08:23:08;8.80;99.90
45837;DHT22;31548;51.420;-0.040;2023-04-15T08:25:37;8.90;99.90
45837;DHT22;31548;51.420;-0.040;2023-04-15T08:28:08;8.90;99.90
45837;DHT22;31548;51.420;-0.040;2023-04-15T08:30:36;9.00;99.90
45837;DHT22;31548;51.420;-0.040;2023-04-15T08:33:05;9.10;99.90
45837;DHT22;31548;51.420;-0.040;2023-04-15T08:35:34;9.10;99.90
45837;DHT22;31548;51.420;-0.040;2023-04-15T08:38:02;9.20;99.90
45837;DHT22;31548;51.420;-0.040;2023-04-15T08:40:39;9.20;99.90
45837;DHT22;31548;51.420;-0.040;2023-04-15T08:43:32;9.20;99.90
45837;DHT22;31548;51.420;-0.040;2023-04-15T08:46:00;9.30;99.90
45837;DHT22;31548;51.420;-0.040;2023-04-15T08:48:32;9.30;99.90
45837;DHT22;31548;51.420;-0.040;2023-04-15T08:51:02;9.40;99.90
45837;DHT22;31548;51.420;-0.040;2023-04-15T08:53:31;9.40;99.90
45837;DHT22;31548;51.420;-0.040;2023-04-15T08:56:03;9.40;99.90
45837;DHT22;31548;51.420;-0.040;2023-04-15T08:58:35;9.40;99.90
45837;DHT22;31548;51.420;-0.040;2023-04-15T09:01:05;9.40;99.90
45837;DHT22;31548;51.420;-0.040;2023-04-15T09:03:35;9.50;99.90
45837;DHT22;31548;51.420;-0.040;2023-04-15T09:06:05;9.50;99.90
45837;DHT22;31548;51.420;-0.040;2023-04-15T09:08:34;9.60;99.90
45837;DHT22;31548;51.420;-0.040;2023-04-15T09:11:03;9.70;99.90
45837;DHT22;31548;51.420;-0.040;2023-04-15T09:13:32;9.80;99.90
45837;DHT22;31548;51.420;-0.040;2023-04-15T09:16:01;9.80;99.90
45837;DHT22;31548;51.420;-0.040;2023-04-15T09:18:38;9.90;99.90
45837;DHT22;31548;51.420;-0.040;2023-04-15T09:21:11;10.00;99.90
45837;DHT22;31548;51.420;-0.040;2023-04-15T09:23:53;10.00;99.90
45837;DHT22;31548;51.420;-0.040;2023-04-15T09:26:36;10.00;99.90
45837;DHT22;31548;51.420;-0.040;2023-04-15T09:29:06;10.10;99.90
45837;DHT22;31548;51.420;-0.040;2023-04-15T09:31:36;10.20;99.90
45837;DHT22;31548;51.420;-0.040;2023-04-15T09:34:05;10.20;99.90
45837;DHT22;31548;51.420;-0.040;2023-04-15T09:37:00;10.20;99.90
45837;DHT22;31548;51.420;-0.040;2023-04-15T09:39:46;10.20;99.90
45837;DHT22;31548;51.420;-0.040;2023-04-15T09:42:16;10.10;99.90
45837;DHT22;31548;51.420;-0.040;2023-04-15T09:44:51;10.10;99.90
45837;DHT22;31548;51.420;-0.040;2023-04-15T09:47:31;10.10;99.90
45837;DHT22;31548;51.420;-0.040;2023-04-15T09:50:00;10.10;99.90
45837;DHT22;31548;51.420;-0.040;2023-04-15T09:52:29;10.20;99.90
45837;DHT22;31548;51.420;-0.040;2023-04-15T09:54:59;10.40;99.90
45837;DHT22;31548;51.420;-0.040;2023-04-15T09:57:35;10.60;99.90
45837;DHT22;31548;51.420;-0.040;2023-04-15T10:00:05;10.70;99.90
45837;DHT22;31548;51.420;-0.040;2023-04-15T10:02:38;10.80;99.90
45837;DHT22;31548;51.420;-0.040;2023-04-15T10:05:13;11.10;99.90
45837;DHT22;31548;51.420;-0.040;2023-04-15T10:07:43;11.20;99.90
45837;DHT22;31548;51.420;-0.040;2023-04-15T10:10:13;11.30;99.90
45837;DHT22;31548;51.420;-0.040;2023-04-15T10:12:43;11.40;99.90
45837;DHT22;31548;51.420;-0.040;2023-04-15T10:15:16;11.40;99.90
45837;DHT22;31548;51.420;-0.040;2023-04-15T10:17:50;11.50;99.90
45837;DHT22;31548;51.420;-0.040;2023-04-15T10:20:21;11.40;99.90
45837;DHT22;31548;51.420;-0.040;2023-04-15T10:22:50;11.30;99.90
45837;DHT22;31548;51.420;-0.040;2023-04-15T10:25:20;11.50;99.90
45837;DHT22;31548;51.420;-0.040;2023-04-15T10:27:50;11.50;99.90
45837;DHT22;31548;51.420;-0.040;2023-04-15T10:30:21;11.40;99.90
45837;DHT22;31548;51.420;-0.040;2023-04-15T10:32:50;11.40;99.90
45837;DHT22;31548;51.420;-0.040;2023-04-15T10:35:20;11.50;99.90
45837;DHT22;31548;51.420;-0.040;2023-04-15T10:37:49;11.70;99.90
45837;DHT22;31548;51.420;-0.040;2023-04-15T10:40:26;11.60;99.90
45837;DHT22;31548;51.420;-0.040;2023-04-15T10:42:56;11.60;99.90
45837;DHT22;31548;51.420;-0.040;2023-04-15T10:45:34;11.50;99.90
45837;DHT22;31548;51.420;-0.040;2023-04-15T10:48:06;11.50;99.90
45837;DHT22;31548;51.420;-0.040;2023-04-15T10:50:36;11.30;99.90
45837;DHT22;31548;51.420;-0.040;2023-04-15T10:53:05;11.30;99.90
45837;DHT22;31548;51.420;-0.040;2023-04-15T10:55:37;11.30;99.90
45837;DHT22;31548;51.420;-0.040;2023-04-15T10:58:08;11.20;99.90
45837;DHT22;31548;51.420;-0.040;2023-04-15T11:00:37;11.20;99.90
45837;DHT22;31548;51.420;-0.040;2023-04-15T11:03:08;11.20;99.90
45837;DHT22;31548;51.420;-0.040;2023-04-15T11:08:11;11.40;99.90
45837;DHT22;31548;51.420;-0.040;2023-04-15T11:15:44;12.00;99.90
45837;DHT22;31548;51.420;-0.040;2023-04-15T11:18:15;12.00;99.90
45837;DHT22;31548;51.420;-0.040;2023-04-15T11:20:46;12.10;99.90
45837;DHT22;31548;51.420;-0.040;2023-04-15T11:23:17;12.10;99.90
45837;DHT22;31548;51.420;-0.040;2023-04-15T11:25:46;11.90;99.90
45837;DHT22;31548;51.420;-0.040;2023-04-15T11:28:16;11.90;99.90
45837;DHT22;31548;51.420;-0.040;2023-04-15T11:30:45;11.90;99.90
45837;DHT22;31548;51.420;-0.040;2023-04-15T11:33:14;11.90;99.90
45837;DHT22;31548;51.420;-0.040;2023-04-15T11:35:43;12.10;99.90
45837;DHT22;31548;51.420;-0.040;2023-04-15T11:38:13;12.30;99.90
45837;DHT22;31548;51.420;-0.040;2023-04-15T11:40:43;12.50;99.90
45837;DHT22;31548;51.420;-0.040;2023-04-15T11:43:20;12.50;99.90
45837;DHT22;31548;51.420;-0.040;2023-04-15T11:45:55;12.60;99.90
45837;DHT22;31548;51.420;-0.040;2023-04-15T11:51:03;12.50;99.90
45837;DHT22;31548;51.420;-0.040;2023-04-15T11:53:48;12.50;99.90
45837;DHT22;31548;51.420;-0.040;2023-04-15T11:56:24;12.60;99.90
45837;DHT22;31548;51.420;-0.040;2023-04-15T11:58:57;12.70;99.90
45837;DHT22;31548;51.420;-0.040;2023-04-15T12:01:32;12.70;99.90
45837;DHT22;31548;51.420;-0.040;2023-04-15T12:04:01;12.50;99.90
45837;DHT22;31548;51.420;-0.040;2023-04-15T12:06:32;12.60;99.90
45837;DHT22;31548;51.420;-0.040;2023-04-15T12:09:06;12.60;99.90
45837;DHT22;31548;51.420;-0.040;2023-04-15T12:11:51;12.70;99.90
45837;DHT22;31548;51.420;-0.040;2023-04-15T12:14:23;12.90;99.90
45837;DHT22;31548;51.420;-0.040;2023-04-15T12:16:53;13.20;99.90
45837;DHT22;31548;51.420;-0.040;2023-04-15T12:19:33;13.40;99.90
45837;DHT22;31548;51.420;-0.040;2023-04-15T12:22:03;13.20;99.90
45837;DHT22;31548;51.420;-0.040;2023-04-15T12:24:33;13.20;99.90
45837;DHT22;31548;51.420;-0.040;2023-04-15T12:27:06;13.20;99.90
45837;DHT22;31548;51.420;-0.040;2023-04-15T12:29:35;13.40;99.90
45837;DHT22;31548;51.420;-0.040;2023-04-15T12:34:43;13.80;99.90
45837;DHT22;31548;51.420;-0.040;2023-04-15T12:37:11;14.00;99.90
45837;DHT22;31548;51.420;-0.040;2023-04-15T12:39:44;13.90;99.90
45837;DHT22;31548;51.420;-0.040;2023-04-15T12:42:11;14.10;99.90
45837;DHT22;31548;51.420;-0.040;2023-04-15T12:44:39;13.90;99.90
45837;DHT22;31548;51.420;-0.040;2023-04-15T12:47:08;13.90;99.90
45837;DHT22;31548;51.420;-0.040;2023-04-15T12:49:36;13.80;99.90
45837;DHT22;31548;51.420;-0.040;2023-04-15T12:52:04;14.00;99.90
45837;DHT22;31548;51.420;-0.040;2023-04-15T12:54:32;14.20;99.90
45837;DHT22;31548;51.420;-0.040;2023-04-15T12:56:59;14.60;99.90
45837;DHT22;31548;51.420;-0.040;2023-04-15T12:59:27;14.90;99.90
45837;DHT22;31548;51.420;-0.040;2023-04-15T13:01:55;15.10;99.90
45837;DHT22;31548;51.420;-0.040;2023-04-15T13:04:23;15.20;99.90
45837;DHT22;31548;51.420;-0.040;2023-04-15T13:06:50;14.80;99.90
45837;DHT22;31548;51.420;-0.040;2023-04-15T13:09:18;14.60;99.90
45837;DHT22;31548;51.420;-0.040;2023-04-15T13:11:45;14.50;99.90
45837;DHT22;31548;51.420;-0.040;2023-04-15T13:14:13;14.40;99.90
45837;DHT22;31548;51.420;-0.040;2023-04-15T13:16:41;14.40;99.90
45837;DHT22;31548;51.420;-0.040;2023-04-15T13:19:08;14.30;99.90
45837;DHT22;31548;51.420;-0.040;2023-04-15T13:21:35;14.30;99.90
45837;DHT22;31548;51.420;-0.040;2023-04-15T13:24:03;14.30;99.90
45837;DHT22;31548;51.420;-0.040;2023-04-15T13:26:33;14.60;99.90
45837;DHT22;31548;51.420;-0.040;2023-04-15T13:29:02;14.90;99.90
45837;DHT22;31548;51.420;-0.040;2023-04-15T13:31:30;15.20;99.90
45837;DHT22;31548;51.420;-0.040;2023-04-15T13:33:58;15.50;99.90
45837;DHT22;31548;51.420;-0.040;2023-04-15T13:36:25;15.40;99.90
45837;DHT22;31548;51.420;-0.040;2023-04-15T13:38:53;15.70;99.90
45837;DHT22;31548;51.420;-0.040;2023-04-15T13:41:21;16.30;99.90
45837;DHT22;31548;51.420;-0.040;2023-04-15T13:43:49;16.70;99.90
45837;DHT22;31548;51.420;-0.040;2023-04-15T13:46:16;17.10;99.90
45837;DHT22;31548;51.420;-0.040;2023-04-15T13:48:44;17.00;99.90
45837;DHT22;31548;51.420;-0.040;2023-04-15T13:51:11;17.00;99.90
45837;DHT22;31548;51.420;-0.040;2023-04-15T13:53:38;16.70;99.90
45837;DHT22;31548;51.420;-0.040;2023-04-15T13:56:07;16.40;99.90
45837;DHT22;31548;51.420;-0.040;2023-04-15T13:58:35;16.00;99.90
45837;DHT22;31548;51.420;-0.040;2023-04-15T14:01:04;15.70;99.90
45837;DHT22;31548;51.420;-0.040;2023-04-15T14:03:34;15.60;99.90
45837;DHT22;31548;51.420;-0.040;2023-04-15T14:06:04;15.40;99.90
45837;DHT22;31548;51.420;-0.040;2023-04-15T14:08:32;15.30;99.90
45837;DHT22;31548;51.420;-0.040;2023-04-15T14:10:59;15.20;99.90
45837;DHT22;31548;51.420;-0.040;2023-04-15T14:13:27;15.10;99.90
45837;DHT22;31548;51.420;-0.040;2023-04-15T14:15:56;15.10;99.90
45837;DHT22;31548;51.420;-0.040;2023-04-15T14:18:23;15.30;99.90
45837;DHT22;31548;51.420;-0.040;2023-04-15T14:20:52;15.70;99.90
45837;DHT22;31548;51.420;-0.040;2023-04-15T14:23:19;16.00;99.90
45837;DHT22;31548;51.420;-0.040;2023-04-15T14:25:47;16.30;99.90
45837;DHT22;31548;51.420;-0.040;2023-04-15T14:28:15;16.30;99.90
45837;DHT22;31548;51.420;-0.040;2023-04-15T14:30:42;16.50;99.90
45837;DHT22;31548;51.420;-0.040;2023-04-15T14:33:10;16.60;99.90
45837;DHT22;31548;51.420;-0.040;2023-04-15T14:35:37;16.80;99.90
45837;DHT22;31548;51.420;-0.040;2023-04-15T14:38:05;17.30;99.90
45837;DHT22;31548;51.420;-0.040;2023-04-15T14:40:37;17.30;99.90
45837;DHT22;31548;51.420;-0.040;2023-04-15T14:43:04;17.30;99.90
45837;DHT22;31548;51.420;-0.040;2023-04-15T14:45:32;17.60;99.90
45837;DHT22;31548;51.420;-0.040;2023-04-15T14:48:00;17.90;99.90
45837;DHT22;31548;51.420;-0.040;2023-04-15T14:50:27;18.10;99.90
45837;DHT22;31548;51.420;-0.040;2023-04-15T14:52:55;18.20;99.90
45837;DHT22;31548;51.420;-0.040;2023-04-15T14:55:22;18.30;99.90
45837;DHT22;31548;51.420;-0.040;2023-04-15T14:57:50;18.40;99.90
45837;DHT22;31548;51.420;-0.040;2023-04-15T15:00:17;18.90;99.70
45837;DHT22;31548;51.420;-0.040;2023-04-15T15:02:44;19.40;99.50
45837;DHT22;31548;51.420;-0.040;2023-04-15T15:05:13;19.20;99.90
45837;DHT22;31548;51.420;-0.040;2023-04-15T15:07:41;19.20;98.60
45837;DHT22;31548;51.420;-0.040;2023-04-15T15:10:11;18.80;99.90
45837;DHT22;31548;51.420;-0.040;2023-04-15T15:14:09;18.30;99.90
45837;DHT22;31548;51.420;-0.040;2023-04-15T15:16:17;18.00;99.90
45837;DHT22;31548;51.420;-0.040;2023-04-15T15:18:46;17.60;99.90
45837;DHT22;31548;51.420;-0.040;2023-04-15T15:21:13;17.10;99.90
45837;DHT22;31548;51.420;-0.040;2023-04-15T15:23:41;16.90;99.90
45837;DHT22;31548;51.420;-0.040;2023-04-15T15:26:09;16.70;99.90
45837;DHT22;31548;51.420;-0.040;2023-04-15T15:28:36;16.60;99.90
45837;DHT22;31548;51.420;-0.040;2023-04-15T15:31:04;16.10;99.90
45837;DHT22;31548;51.420;-0.040;2023-04-15T15:33:32;16.10;99.90
45837;DHT22;31548;51.420;-0.040;2023-04-15T15:36:00;16.30;99.90
45837;DHT22;31548;51.420;-0.040;2023-04-15T15:38:28;16.60;99.90
45837;DHT22;31548;51.420;-0.040;2023-04-15T15:40:56;16.80;99.90
45837;DHT22;31548;51.420;-0.040;2023-04-15T15:43:23;17.00;99.90
45837;DHT22;31548;51.420;-0.040;2023-04-15T15:45:51;16.90;99.90
45837;DHT22;31548;51.420;-0.040;2023-04-15T15:48:22;17.50;99.90
45837;DHT22;31548;51.420;-0.040;2023-04-15T15:50:51;17.80;99.90
45837;DHT22;31548;51.420;-0.040;2023-04-15T15:53:24;18.30;99.10